Time;durP1;ratioP1;P1;durP2;ratioP2;P2;SDS_P1;SDS_P2;PMS_P1;PMS_P2;Temp;Humidity;BMP_temperature;BMP_pressure;BME280_temperature;BME280_humidity;BME280_pressure;Samples;Min_cycle;Max_cycle;Signal;HPM_P1;HPM_P2
2021/12/22 00:00:34;;;;;;;30.90;13.10;;;;;;;;;;5043458;28;20248;-70
2021/12/22 00:02:59;;;;;;;36.83;13.33;;;;;;;;;;5031145;28;20181;-70
2021/12/22 00:05:28;;;;;;;33.47;13.80;;;;;;;;;;5040993;28;20193;-71
2021/12/22 00:07:54;;;;;;;32.67;13.40;;;;;;;;;;5038638;28;20221;-70
2021/12/22 00:10:20;;;;;;;34.17;14.83;;;;;;;;;;5031421;28;20194;-71
2021/12/22 00:12:48;;;;;;;29.23;13.13;;;;;;;;;;5040107;28;20185;-71
2021/12/22 00:15:13;;;;;;;34.83;13.40;;;;;;;;;;5028075;28;20181;-71
2021/12/22 00:17:39;;;;;;;37.30;14.17;;;;;;;;;;5041458;28;20691;-71
2021/12/22 00:20:07;;;;;;;33.67;13.47;;;;;;;;;;5032869;28;20647;-70
2021/12/22 00:22:32;;;;;;;32.43;13.70;;;;;;;;;;5038080;28;20190;-70
2021/12/22 00:24:58;;;;;;;35.47;13.90;;;;;;;;;;5034363;28;20213;-70
2021/12/22 00:27:23;;;;;;;33.07;13.60;;;;;;;;;;5042846;28;20581;-70
2021/12/22 00:29:51;;;;;;;35.53;15.17;;;;;;;;;;5033172;28;20840;-70
2021/12/22 00:32:17;;;;;;;32.47;13.33;;;;;;;;;;5037366;28;20185;-70
2021/12/22 00:34:50;;;;;;;30.83;13.60;;;;;;;;;;5044966;28;20660;-70
2021/12/22 00:37:19;;;;;;;33.13;13.77;;;;;;;;;;5043152;28;20299;-70
2021/12/22 00:39:44;;;;;;;37.50;13.07;;;;;;;;;;5038517;28;20664;-71
2021/12/22 00:42:12;;;;;;;30.87;13.60;;;;;;;;;;5041116;28;20292;-70
2021/12/22 00:44:38;;;;;;;35.23;14.87;;;;;;;;;;5041255;28;20200;-71
2021/12/22 00:47:04;;;;;;;30.70;13.47;;;;;;;;;;5038538;28;20245;-71
2021/12/22 00:49:30;;;;;;;31.43;14.27;;;;;;;;;;5039402;28;20275;-71
2021/12/22 00:51:55;;;;;;;34.07;13.90;;;;;;;;;;5033265;28;20692;-70
2021/12/22 00:54:21;;;;;;;33.17;13.93;;;;;;;;;;5036601;28;20216;-70
2021/12/22 00:56:46;;;;;;;31.63;14.73;;;;;;;;;;5025221;28;20185;-71
2021/12/22 00:59:11;;;;;;;37.90;14.77;;;;;;;;;;5039105;28;20177;-72
2021/12/22 01:01:37;;;;;;;32.27;13.97;;;;;;;;;;5028975;28;20193;-70
2021/12/22 01:04:02;;;;;;;34.47;13.23;;;;;;;;;;5039902;28;20186;-70
2021/12/22 01:06:28;;;;;;;31.57;12.60;;;;;;;;;;5033797;28;20280;-70
2021/12/22 01:08:53;;;;;;;34.37;14.37;;;;;;;;;;5041079;28;20244;-71
2021/12/22 01:11:19;;;;;;;32.40;14.47;;;;;;;;;;5035360;28;20320;-71
2021/12/22 01:13:44;;;;;;;33.13;14.63;;;;;;;;;;5033253;28;20178;-71
2021/12/22 01:16:09;;;;;;;34.43;13.33;;;;;;;;;;5042092;28;20182;-69
2021/12/22 01:18:36;;;;;;;30.73;13.93;;;;;;;;;;5033032;28;20228;-70
2021/12/22 01:23:37;;;;;;;33.40;13.43;;;;;;;;;;5031185;28;20250;-70
2021/12/22 01:26:04;;;;;;;33.67;13.40;;;;;;;;;;5036517;28;20548;-71
2021/12/22 01:28:30;;;;;;;33.97;13.77;;;;;;;;;;5036882;28;20224;-71
2021/12/22 01:31:01;;;;;;;31.97;13.77;;;;;;;;;;5037305;28;20209;-70
2021/12/22 01:33:27;;;;;;;34.43;14.03;;;;;;;;;;5037584;28;20493;-70
2021/12/22 01:35:52;;;;;;;31.40;13.13;;;;;;;;;;5038036;28;20208;-71
2021/12/22 01:38:18;;;;;;;34.80;13.47;;;;;;;;;;5031033;28;20181;-71
2021/12/22 01:40:45;;;;;;;33.00;12.60;;;;;;;;;;5037313;28;20288;-71
2021/12/22 01:43:14;;;;;;;31.77;12.90;;;;;;;;;;5029812;28;20334;-70
2021/12/22 01:51:55;;;;;;;24.53;11.53;;;;;;;;;;5035285;28;20217;-72
2021/12/22 01:54:20;;;;;;;31.03;12.80;;;;;;;;;;5031735;28;20212;-70
2021/12/22 01:56:47;;;;;;;28.13;11.63;;;;;;;;;;5038739;28;20176;-69
2021/12/22 01:59:13;;;;;;;25.70;11.60;;;;;;;;;;5029944;28;20270;-69
2021/12/22 02:01:39;;;;;;;32.57;13.00;;;;;;;;;;5045223;28;20644;-70
2021/12/22 02:04:10;;;;;;;28.57;12.00;;;;;;;;;;5031413;28;20200;-71
2021/12/22 02:06:41;;;;;;;32.47;13.07;;;;;;;;;;5040097;28;20601;-71
2021/12/22 02:09:10;;;;;;;30.27;12.13;;;;;;;;;;5038361;28;20221;-71
2021/12/22 02:11:35;;;;;;;30.67;13.00;;;;;;;;;;5029456;28;20182;-71
2021/12/22 02:14:04;;;;;;;28.60;12.70;;;;;;;;;;5038867;28;20278;-71
2021/12/22 02:16:34;;;;;;;32.57;12.93;;;;;;;;;;5035815;28;20298;-70
2021/12/22 02:19:01;;;;;;;28.67;12.57;;;;;;;;;;5038121;28;20188;-71
2021/12/22 02:21:31;;;;;;;33.17;12.63;;;;;;;;;;5034269;28;20272;-70
2021/12/22 02:23:58;;;;;;;28.27;11.50;;;;;;;;;;5041367;28;20200;-70
2021/12/22 02:26:35;;;;;;;31.63;12.87;;;;;;;;;;5033624;28;20254;-70
2021/12/22 02:29:05;;;;;;;30.33;12.37;;;;;;;;;;5043568;28;20260;-70
2021/12/22 02:31:38;;;;;;;29.80;11.93;;;;;;;;;;5031200;28;20638;-70
2021/12/22 02:34:05;;;;;;;29.90;12.57;;;;;;;;;;5036951;28;20755;-70
2021/12/22 02:36:37;;;;;;;27.37;12.47;;;;;;;;;;5039270;28;20173;-70
2021/12/22 02:39:04;;;;;;;27.33;11.50;;;;;;;;;;5047203;28;20224;-70
2021/12/22 02:41:31;;;;;;;28.40;12.70;;;;;;;;;;5035170;28;20185;-70
2021/12/22 02:43:58;;;;;;;27.03;11.80;;;;;;;;;;5045293;28;20189;-71
2021/12/22 02:46:25;;;;;;;27.63;12.73;;;;;;;;;;5034761;28;20236;-70
2021/12/22 02:48:51;;;;;;;27.67;12.03;;;;;;;;;;5044441;28;20633;-70
2021/12/22 02:51:17;;;;;;;31.20;11.90;;;;;;;;;;5042050;28;20185;-70
2021/12/22 02:53:50;;;;;;;27.17;12.80;;;;;;;;;;5037259;28;20721;-70
2021/12/22 03:01:38;;;;;;;29.40;12.00;;;;;;;;;;5040195;28;20708;-70
2021/12/22 03:04:12;;;;;;;34.10;12.97;;;;;;;;;;5033677;28;20216;-70
2021/12/22 03:09:24;;;;;;;28.47;11.57;;;;;;;;;;5033975;28;20266;-70
2021/12/22 03:11:51;;;;;;;28.87;11.37;;;;;;;;;;5043634;28;20498;-70
2021/12/22 03:14:18;;;;;;;27.73;10.97;;;;;;;;;;5036260;28;20225;-70
2021/12/22 03:16:43;;;;;;;26.37;11.40;;;;;;;;;;5045838;28;20197;-70
2021/12/22 03:19:10;;;;;;;28.77;11.57;;;;;;;;;;5035333;28;20613;-70
2021/12/22 03:21:37;;;;;;;27.07;11.37;;;;;;;;;;5045697;28;20192;-70
2021/12/22 03:24:02;;;;;;;24.60;12.17;;;;;;;;;;5037259;28;20192;-70
2021/12/22 03:26:29;;;;;;;34.60;11.67;;;;;;;;;;5047267;28;20182;-70
2021/12/22 03:28:54;;;;;;;30.53;11.97;;;;;;;;;;5033284;28;20192;-70
2021/12/22 03:31:20;;;;;;;31.17;11.87;;;;;;;;;;5045908;28;20594;-70
2021/12/22 03:33:46;;;;;;;25.53;10.80;;;;;;;;;;5035663;28;20267;-70
2021/12/22 03:36:11;;;;;;;28.33;10.63;;;;;;;;;;5046437;28;20320;-70
2021/12/22 03:38:37;;;;;;;29.03;12.13;;;;;;;;;;5035533;28;20537;-73
2021/12/22 03:41:05;;;;;;;23.80;11.13;;;;;;;;;;5035665;28;20213;-71
2021/12/22 03:43:31;;;;;;;29.90;11.90;;;;;;;;;;5043279;28;20235;-71
2021/12/22 03:45:57;;;;;;;23.60;11.23;;;;;;;;;;5033289;28;20194;-71
2021/12/22 03:48:24;;;;;;;31.97;13.00;;;;;;;;;;5040568;28;20208;-71
2021/12/22 03:50:50;;;;;;;25.47;11.80;;;;;;;;;;5035511;28;20185;-71
2021/12/22 03:53:16;;;;;;;27.50;11.77;;;;;;;;;;5041451;28;20212;-71
2021/12/22 03:55:41;;;;;;;26.63;10.63;;;;;;;;;;5035090;28;20236;-71
2021/12/22 03:58:07;;;;;;;26.77;11.80;;;;;;;;;;5041665;28;20181;-71
2021/12/22 04:00:34;;;;;;;27.90;11.50;;;;;;;;;;5033843;28;20197;-71
2021/12/22 04:03:01;;;;;;;24.37;9.80;;;;;;;;;;5039765;28;20214;-71
2021/12/22 04:05:27;;;;;;;25.70;11.60;;;;;;;;;;5033299;28;20280;-71
2021/12/22 04:07:54;;;;;;;22.20;10.57;;;;;;;;;;5042935;28;20772;-71
2021/12/22 04:10:20;;;;;;;27.37;10.60;;;;;;;;;;5043259;28;20659;-71
2021/12/22 04:12:56;;;;;;;27.73;11.13;;;;;;;;;;5035348;28;20201;-71
2021/12/22 04:15:24;;;;;;;30.67;11.30;;;;;;;;;;5043577;28;20184;-73
2021/12/22 04:17:50;;;;;;;25.80;10.47;;;;;;;;;;5031593;28;20221;-71
2021/12/22 04:20:16;;;;;;;30.83;11.80;;;;;;;;;;5043495;28;20680;-71
2021/12/22 04:22:41;;;;;;;26.03;10.97;;;;;;;;;;5034802;28;20195;-71
2021/12/22 04:25:08;;;;;;;24.00;10.37;;;;;;;;;;5037953;28;21558;-71
2021/12/22 04:27:34;;;;;;;26.50;10.83;;;;;;;;;;5027121;28;20196;-71
2021/12/22 04:30:00;;;;;;;30.43;11.07;;;;;;;;;;5041996;28;20173;-71
2021/12/22 04:32:25;;;;;;;24.17;11.00;;;;;;;;;;5038959;28;20240;-71
2021/12/22 04:34:51;;;;;;;28.83;11.27;;;;;;;;;;5041906;28;20197;-71
2021/12/22 04:37:16;;;;;;;26.23;10.23;;;;;;;;;;5036858;28;20799;-71
2021/12/22 04:39:41;;;;;;;26.20;11.03;;;;;;;;;;5042680;28;20213;-71
2021/12/22 04:42:07;;;;;;;20.83;10.20;;;;;;;;;;5038456;28;20600;-71
2021/12/22 04:44:32;;;;;;;28.90;11.03;;;;;;;;;;5041953;28;20192;-71
2021/12/22 04:46:59;;;;;;;25.80;9.60;;;;;;;;;;5043083;28;20234;-71
2021/12/22 04:49:24;;;;;;;28.00;10.90;;;;;;;;;;5027563;28;20600;-71
2021/12/22 04:51:53;;;;;;;24.37;10.90;;;;;;;;;;5039351;28;20272;-71
2021/12/22 04:54:31;;;;;;;25.43;10.47;;;;;;;;;;5026149;28;20274;-71
2021/12/22 04:56:57;;;;;;;24.30;10.57;;;;;;;;;;5035119;28;20254;-71
2021/12/22 04:59:23;;;;;;;27.57;11.70;;;;;;;;;;5027679;28;20194;-71
2021/12/22 05:01:49;;;;;;;20.67;9.60;;;;;;;;;;5037265;28;20186;-71
2021/12/22 05:04:15;;;;;;;22.63;9.77;;;;;;;;;;5022844;28;20233;-71
2021/12/22 05:06:40;;;;;;;22.87;9.70;;;;;;;;;;5040142;28;20318;-71
2021/12/22 05:09:07;;;;;;;19.27;9.47;;;;;;;;;;5031258;28;20555;-71
2021/12/22 05:11:33;;;;;;;26.80;10.37;;;;;;;;;;5040671;28;20182;-71
2021/12/22 05:13:59;;;;;;;23.60;10.63;;;;;;;;;;5033695;28;20638;-71
2021/12/22 05:16:25;;;;;;;24.97;9.80;;;;;;;;;;5036354;28;20954;-71
2021/12/22 05:18:58;;;;;;;22.83;9.50;;;;;;;;;;5030413;28;20486;-71
2021/12/22 05:21:24;;;;;;;25.07;10.40;;;;;;;;;;5040838;28;20606;-71
2021/12/22 05:23:54;;;;;;;22.63;10.50;;;;;;;;;;5042479;28;20544;-71
2021/12/22 05:26:21;;;;;;;26.73;10.43;;;;;;;;;;5030537;28;20201;-70
2021/12/22 05:28:47;;;;;;;25.43;10.20;;;;;;;;;;5039166;28;20193;-70
2021/12/22 05:31:12;;;;;;;21.37;9.50;;;;;;;;;;5030738;28;20191;-70
2021/12/22 05:33:38;;;;;;;25.03;10.63;;;;;;;;;;5043859;28;20185;-70
2021/12/22 05:36:04;;;;;;;22.70;9.77;;;;;;;;;;5042567;28;20709;-70
2021/12/22 05:38:29;;;;;;;25.23;10.33;;;;;;;;;;5039722;28;20276;-70
2021/12/22 05:40:54;;;;;;;23.80;10.60;;;;;;;;;;5030455;28;20296;-71
2021/12/22 05:43:20;;;;;;;22.33;10.20;;;;;;;;;;5042779;28;20186;-71
2021/12/22 05:45:45;;;;;;;24.03;9.67;;;;;;;;;;5033384;28;20189;-71
2021/12/22 05:48:11;;;;;;;24.60;9.93;;;;;;;;;;5043066;28;20227;-70
2021/12/22 05:50:36;;;;;;;21.30;9.27;;;;;;;;;;5033467;28;20560;-70
2021/12/22 05:53:02;;;;;;;28.17;10.80;;;;;;;;;;5042586;28;20272;-71
2021/12/22 05:55:28;;;;;;;23.57;9.33;;;;;;;;;;5039364;28;20228;-71
2021/12/22 05:57:53;;;;;;;24.77;9.87;;;;;;;;;;5032192;28;20213;-71
2021/12/22 06:00:19;;;;;;;25.00;10.10;;;;;;;;;;5040289;28;20232;-71
2021/12/22 06:02:44;;;;;;;23.13;9.07;;;;;;;;;;5031236;28;20268;-71
2021/12/22 06:05:11;;;;;;;19.30;9.53;;;;;;;;;;5039983;28;20592;-71
2021/12/22 06:07:37;;;;;;;21.97;8.97;;;;;;;;;;5027684;28;20230;-71
2021/12/22 06:10:04;;;;;;;25.70;9.60;;;;;;;;;;5033146;28;20182;-71
2021/12/22 06:12:29;;;;;;;26.10;9.63;;;;;;;;;;5034547;28;20588;-71
2021/12/22 06:14:55;;;;;;;25.00;10.43;;;;;;;;;;5037598;28;20663;-70
2021/12/22 06:17:20;;;;;;;28.50;9.50;;;;;;;;;;5034343;28;20194;-71
2021/12/22 06:19:45;;;;;;;27.43;9.90;;;;;;;;;;5038025;28;20543;-71
2021/12/22 06:22:11;;;;;;;25.97;10.47;;;;;;;;;;5035376;28;20195;-70
2021/12/22 06:24:36;;;;;;;26.33;9.60;;;;;;;;;;5040555;28;20268;-71
2021/12/22 06:27:01;;;;;;;22.80;10.13;;;;;;;;;;5045031;28;20189;-71
2021/12/22 06:29:27;;;;;;;27.73;10.47;;;;;;;;;;5034305;28;20186;-71
2021/12/22 06:31:52;;;;;;;25.90;10.23;;;;;;;;;;5041099;28;20635;-71
2021/12/22 06:34:18;;;;;;;26.07;9.97;;;;;;;;;;5037004;28;20205;-71
2021/12/22 06:36:43;;;;;;;29.23;10.60;;;;;;;;;;5043994;28;20190;-71
2021/12/22 06:39:09;;;;;;;22.10;9.97;;;;;;;;;;5036061;28;20185;-71
2021/12/22 06:41:34;;;;;;;25.17;9.50;;;;;;;;;;5042474;28;20185;-71
2021/12/22 06:44:00;;;;;;;25.40;10.60;;;;;;;;;;5041116;28;20279;-71
2021/12/22 06:46:25;;;;;;;28.03;11.03;;;;;;;;;;5041115;28;20189;-70
2021/12/22 06:48:50;;;;;;;25.20;10.00;;;;;;;;;;5036142;28;20331;-71
2021/12/22 06:51:16;;;;;;;25.23;10.20;;;;;;;;;;5044925;28;20227;-70
2021/12/22 06:53:41;;;;;;;21.00;9.53;;;;;;;;;;5043408;28;21180;-70
2021/12/22 06:56:06;;;;;;;22.57;9.47;;;;;;;;;;5035011;28;20185;-71
2021/12/22 06:58:32;;;;;;;21.27;9.97;;;;;;;;;;5045872;28;20205;-71
2021/12/22 07:00:58;;;;;;;22.60;10.03;;;;;;;;;;5029391;28;20205;-71
2021/12/22 07:03:24;;;;;;;22.53;9.63;;;;;;;;;;5040435;28;20263;-71
2021/12/22 07:05:49;;;;;;;26.13;10.50;;;;;;;;;;5024871;28;20197;-71
2021/12/22 07:08:14;;;;;;;26.20;9.87;;;;;;;;;;5039153;28;20225;-71
2021/12/22 07:10:40;;;;;;;27.80;10.93;;;;;;;;;;5034034;28;20271;-70
2021/12/22 07:13:06;;;;;;;22.07;9.43;;;;;;;;;;5041698;28;20189;-71
2021/12/22 07:15:32;;;;;;;24.13;10.33;;;;;;;;;;5029730;28;20457;-70
2021/12/22 07:17:58;;;;;;;23.03;9.53;;;;;;;;;;5041542;28;20197;-70
2021/12/22 07:20:23;;;;;;;23.20;9.90;;;;;;;;;;5030521;28;20358;-71
2021/12/22 07:22:49;;;;;;;20.13;9.37;;;;;;;;;;5039319;28;20217;-71
2021/12/22 07:25:18;;;;;;;28.50;10.07;;;;;;;;;;5036777;28;20241;-71
2021/12/22 07:27:44;;;;;;;21.87;9.07;;;;;;;;;;5027074;28;20566;-71
2021/12/22 07:30:10;;;;;;;25.20;10.37;;;;;;;;;;5045182;28;20208;-71
2021/12/22 07:32:35;;;;;;;26.50;10.40;;;;;;;;;;5024767;28;20332;-71
2021/12/22 07:35:03;;;;;;;24.17;9.83;;;;;;;;;;5034657;28;20676;-71
2021/12/22 07:37:51;;;;;;;23.63;9.73;;;;;;;;;;5026573;28;20245;-71
2021/12/22 07:40:19;;;;;;;26.60;10.63;;;;;;;;;;4335263;28;10000802;-71
2021/12/22 07:42:45;;;;;;;21.27;8.53;;;;;;;;;;5025825;28;20213;-71
2021/12/22 07:45:11;;;;;;;26.87;10.60;;;;;;;;;;5031477;28;20612;-71
2021/12/22 07:47:37;;;;;;;21.67;9.77;;;;;;;;;;5020332;28;20225;-71
2021/12/22 07:50:04;;;;;;;24.07;10.00;;;;;;;;;;5038798;28;20280;-71
2021/12/22 07:52:30;;;;;;;26.37;10.93;;;;;;;;;;5024322;28;20190;-71
2021/12/22 07:54:55;;;;;;;20.80;9.67;;;;;;;;;;5033887;28;20206;-70
2021/12/22 07:57:21;;;;;;;26.27;10.57;;;;;;;;;;5023644;28;22607;-71
2021/12/22 07:59:46;;;;;;;25.70;10.80;;;;;;;;;;5033654;28;20214;-71
2021/12/22 08:02:12;;;;;;;25.47;9.63;;;;;;;;;;5029508;28;20189;-71
2021/12/22 08:04:38;;;;;;;24.93;9.50;;;;;;;;;;5030129;28;20217;-71
2021/12/22 08:07:03;;;;;;;22.73;9.87;;;;;;;;;;5028834;28;20186;-72
2021/12/22 08:09:29;;;;;;;22.90;10.27;;;;;;;;;;5025950;28;20528;-71
2021/12/22 08:11:56;;;;;;;22.10;9.73;;;;;;;;;;5032376;28;20213;-71
2021/12/22 08:14:23;;;;;;;22.40;9.23;;;;;;;;;;5025775;28;20284;-71
2021/12/22 08:16:49;;;;;;;30.63;10.57;;;;;;;;;;5033611;28;20637;-71
2021/12/22 08:19:15;;;;;;;26.40;10.23;;;;;;;;;;5027867;28;20280;-71
2021/12/22 08:21:40;;;;;;;23.13;9.67;;;;;;;;;;5030155;28;20281;-70
2021/12/22 08:24:06;;;;;;;24.20;10.43;;;;;;;;;;5027670;28;20208;-70
2021/12/22 08:26:31;;;;;;;24.00;10.90;;;;;;;;;;5029952;28;20248;-70
2021/12/22 08:28:56;;;;;;;24.50;9.03;;;;;;;;;;5028790;28;20597;-71
2021/12/22 08:31:22;;;;;;;29.30;10.17;;;;;;;;;;5037608;28;20713;-70
2021/12/22 08:33:48;;;;;;;26.13;10.77;;;;;;;;;;5031984;28;20844;-70
2021/12/22 08:39:02;;;;;;;27.07;11.27;;;;;;;;;;5030974;28;20244;-70
2021/12/22 08:41:31;;;;;;;25.20;10.93;;;;;;;;;;5027710;28;20802;-70
2021/12/22 08:43:59;;;;;;;23.43;10.17;;;;;;;;;;5031185;28;20268;-70
2021/12/22 08:46:24;;;;;;;28.67;10.80;;;;;;;;;;5027894;28;20201;-70
2021/12/22 08:48:50;;;;;;;24.27;10.53;;;;;;;;;;5034452;28;20201;-70
2021/12/22 08:51:15;;;;;;;26.37;9.50;;;;;;;;;;5023705;28;20573;-70
2021/12/22 08:53:41;;;;;;;21.37;10.20;;;;;;;;;;5037015;28;20186;-70
2021/12/22 08:56:07;;;;;;;25.93;10.83;;;;;;;;;;5027058;28;20259;-70
2021/12/22 08:58:33;;;;;;;24.20;11.13;;;;;;;;;;5034631;28;20182;-70
2021/12/22 09:00:58;;;;;;;26.10;11.53;;;;;;;;;;5026660;28;20209;-70
2021/12/22 09:03:23;;;;;;;25.13;11.00;;;;;;;;;;5034155;28;20197;-70
2021/12/22 09:05:49;;;;;;;25.07;9.77;;;;;;;;;;5028093;28;20599;-70
2021/12/22 09:08:14;;;;;;;23.77;10.07;;;;;;;;;;5032390;28;20268;-70
2021/12/22 09:10:39;;;;;;;26.33;10.60;;;;;;;;;;5034828;28;20177;-70
2021/12/22 09:13:06;;;;;;;27.63;10.60;;;;;;;;;;5027203;28;20220;-71
2021/12/22 09:15:32;;;;;;;25.37;11.13;;;;;;;;;;5037484;28;20193;-71
2021/12/22 09:17:57;;;;;;;30.83;10.67;;;;;;;;;;5024947;28;20228;-71
2021/12/22 09:20:23;;;;;;;24.33;10.63;;;;;;;;;;5036619;28;20707;-71
2021/12/22 09:22:49;;;;;;;25.27;11.40;;;;;;;;;;5032430;28;20189;-70
2021/12/22 09:25:14;;;;;;;31.00;11.30;;;;;;;;;;5034599;28;20190;-69
2021/12/22 09:27:39;;;;;;;26.23;10.73;;;;;;;;;;5029998;28;20196;-69
2021/12/22 09:30:06;;;;;;;28.77;11.67;;;;;;;;;;5037707;28;20185;-69
2021/12/22 09:32:31;;;;;;;25.77;10.87;;;;;;;;;;5028507;28;20201;-69
2021/12/22 09:34:56;;;;;;;28.23;12.00;;;;;;;;;;5035103;28;20178;-69
2021/12/22 09:37:22;;;;;;;29.03;13.03;;;;;;;;;;5027083;28;20193;-69
2021/12/22 09:39:49;;;;;;;26.90;11.87;;;;;;;;;;5036881;28;20542;-70
2021/12/22 09:42:15;;;;;;;26.33;11.90;;;;;;;;;;5035094;28;20201;-70
2021/12/22 09:44:46;;;;;;;26.00;12.20;;;;;;;;;;5025303;28;20664;-71
2021/12/22 09:47:14;;;;;;;29.57;13.13;;;;;;;;;;5037771;28;20193;-71
2021/12/22 09:52:17;;;;;;;28.27;13.47;;;;;;;;;;5038506;28;20200;-70
2021/12/22 09:54:43;;;;;;;26.57;12.37;;;;;;;;;;5026657;28;20204;-72
2021/12/22 09:57:10;;;;;;;27.77;12.60;;;;;;;;;;5033852;28;20320;-71
2021/12/22 09:59:36;;;;;;;30.10;14.13;;;;;;;;;;5027657;28;20322;-71
2021/12/22 10:02:02;;;;;;;30.13;14.03;;;;;;;;;;5037469;28;20878;-71
2021/12/22 10:04:28;;;;;;;30.07;13.23;;;;;;;;;;5029101;28;20854;-71
2021/12/22 10:06:54;;;;;;;28.07;13.97;;;;;;;;;;5039027;28;20245;-71
2021/12/22 10:09:24;;;;;;;25.83;11.87;;;;;;;;;;5029544;28;20205;-71
2021/12/22 10:11:50;;;;;;;25.70;12.70;;;;;;;;;;5037695;28;20193;-71
2021/12/22 10:14:26;;;;;;;28.43;12.37;;;;;;;;;;5031799;28;20192;-71
2021/12/22 10:16:54;;;;;;;28.97;12.10;;;;;;;;;;5039589;28;20243;-71
2021/12/22 10:19:23;;;;;;;25.50;12.50;;;;;;;;;;5041064;28;20184;-71
2021/12/22 10:21:58;;;;;;;24.07;12.57;;;;;;;;;;5030432;28;20652;-70
2021/12/22 10:24:38;;;;;;;29.13;12.43;;;;;;;;;;5036114;28;20227;-71
2021/12/22 10:27:10;;;;;;;28.33;12.60;;;;;;;;;;5011967;28;20193;-71
2021/12/22 10:29:36;;;;;;;24.53;11.23;;;;;;;;;;5040250;28;20269;-72
2021/12/22 10:32:14;;;;;;;25.57;12.27;;;;;;;;;;5028079;28;20205;-71
2021/12/22 10:35:00;;;;;;;27.87;11.97;;;;;;;;;;5040339;28;20281;-70
2021/12/22 10:37:37;;;;;;;26.73;11.73;;;;;;;;;;5030619;28;20674;-70
2021/12/22 10:40:25;;;;;;;28.90;13.43;;;;;;;;;;5037078;28;20213;-70
2021/12/22 10:42:51;;;;;;;23.83;12.03;;;;;;;;;;5030336;28;20196;-70
2021/12/22 10:45:18;;;;;;;29.27;13.23;;;;;;;;;;5039649;28;20200;-72
2021/12/22 10:50:36;;;;;;;23.73;10.90;;;;;;;;;;5041145;28;20564;-70
2021/12/22 10:53:04;;;;;;;22.83;11.87;;;;;;;;;;5021525;28;20203;-70
2021/12/22 10:55:38;;;;;;;25.13;11.97;;;;;;;;;;5036783;28;20201;-70
2021/12/22 10:58:24;;;;;;;26.60;13.23;;;;;;;;;;5030926;28;20527;-70
2021/12/22 11:01:13;;;;;;;25.87;11.57;;;;;;;;;;5037808;28;20278;-70
2021/12/22 11:03:48;;;;;;;23.57;11.03;;;;;;;;;;5031280;28;20186;-70
2021/12/22 11:06:17;;;;;;;22.97;11.83;;;;;;;;;;5043532;28;20189;-70
2021/12/22 11:08:55;;;;;;;22.00;11.63;;;;;;;;;;5030757;28;20233;-70
2021/12/22 11:11:20;;;;;;;22.33;11.80;;;;;;;;;;5036493;28;20702;-70
2021/12/22 11:14:02;;;;;;;25.03;11.97;;;;;;;;;;5031788;28;20193;-71
2021/12/22 11:16:28;;;;;;;24.03;11.93;;;;;;;;;;5038935;28;20243;-70
2021/12/22 11:18:53;;;;;;;23.33;10.83;;;;;;;;;;5025464;28;20190;-71
2021/12/22 11:21:30;;;;;;;24.40;11.40;;;;;;;;;;5036856;28;20669;-70
2021/12/22 11:23:55;;;;;;;21.73;10.93;;;;;;;;;;5026973;28;20209;-71
2021/12/22 11:26:20;;;;;;;23.30;11.03;;;;;;;;;;5042655;28;20302;-70
2021/12/22 11:28:46;;;;;;;25.10;12.23;;;;;;;;;;5022979;28;20216;-69
2021/12/22 11:31:12;;;;;;;23.80;11.93;;;;;;;;;;5036323;28;20192;-70
2021/12/22 11:33:40;;;;;;;23.77;11.40;;;;;;;;;;5024689;28;20199;-71
2021/12/22 11:36:07;;;;;;;24.70;11.80;;;;;;;;;;5037323;28;20189;-70
2021/12/22 11:38:33;;;;;;;25.23;13.00;;;;;;;;;;5033786;28;20185;-75
2021/12/22 11:41:10;;;;;;;25.80;12.40;;;;;;;;;;5029531;28;20418;-70
2021/12/22 11:43:38;;;;;;;24.20;11.23;;;;;;;;;;5035818;28;20525;-70
2021/12/22 11:46:05;;;;;;;27.93;12.67;;;;;;;;;;5030792;28;20665;-70
2021/12/22 11:48:31;;;;;;;26.00;11.90;;;;;;;;;;5036202;28;20299;-70
2021/12/22 11:50:56;;;;;;;28.83;12.87;;;;;;;;;;5031912;28;20193;-69
2021/12/22 11:53:23;;;;;;;26.73;13.17;;;;;;;;;;5036966;28;20189;-69
2021/12/22 11:55:51;;;;;;;27.43;12.83;;;;;;;;;;5029165;28;20271;-70
2021/12/22 11:58:34;;;;;;;26.53;13.47;;;;;;;;;;5035488;28;20663;-69
2021/12/22 12:01:12;;;;;;;26.70;12.80;;;;;;;;;;5029243;28;20313;-70
2021/12/22 12:03:43;;;;;;;29.07;13.23;;;;;;;;;;5038012;28;20219;-69
2021/12/22 12:06:15;;;;;;;29.10;13.07;;;;;;;;;;5031697;28;20205;-70
2021/12/22 12:08:45;;;;;;;27.03;13.17;;;;;;;;;;5041097;28;20256;-69
2021/12/22 12:11:18;;;;;;;29.60;13.40;;;;;;;;;;5029731;28;20510;-69
2021/12/22 12:22:16;;;;;;;28.43;12.63;;;;;;;;;;5036421;28;20267;-69
2021/12/22 12:24:56;;;;;;;24.83;12.83;;;;;;;;;;5033473;28;20261;-68
2021/12/22 12:27:37;;;;;;;26.80;12.97;;;;;;;;;;5026365;28;20268;-68
2021/12/22 12:30:08;;;;;;;25.30;12.50;;;;;;;;;;5029832;28;20182;-68
2021/12/22 12:32:40;;;;;;;24.27;13.30;;;;;;;;;;5029989;28;20212;-68
2021/12/22 12:35:17;;;;;;;31.63;13.30;;;;;;;;;;5033795;28;20591;-68
2021/12/22 12:38:08;;;;;;;26.93;13.53;;;;;;;;;;5026214;28;21510;-68
2021/12/22 12:40:55;;;;;;;25.00;12.63;;;;;;;;;;5031363;28;20331;-68
2021/12/22 12:43:40;;;;;;;25.80;12.53;;;;;;;;;;5026119;28;20189;-68
2021/12/22 12:46:21;;;;;;;27.10;12.93;;;;;;;;;;5035970;28;20220;-70
2021/12/22 12:48:48;;;;;;;28.23;12.90;;;;;;;;;;5021867;28;20543;-70
2021/12/22 12:51:32;;;;;;;26.97;12.73;;;;;;;;;;5035680;28;20196;-69
2021/12/22 12:53:58;;;;;;;26.70;12.77;;;;;;;;;;5030451;28;20197;-68
2021/12/22 12:56:31;;;;;;;25.20;13.10;;;;;;;;;;5037485;28;20685;-68
2021/12/22 12:59:02;;;;;;;23.77;12.47;;;;;;;;;;5032715;28;20192;-68
2021/12/22 13:01:51;;;;;;;24.33;13.27;;;;;;;;;;5038897;28;20213;-68
2021/12/22 13:04:28;;;;;;;23.67;11.63;;;;;;;;;;5031540;28;20189;-69
2021/12/22 13:07:05;;;;;;;27.17;13.40;;;;;;;;;;5035757;28;20718;-68
2021/12/22 13:10:02;;;;;;;25.07;12.80;;;;;;;;;;5032162;28;20185;-68
2021/12/22 13:18:26;;;;;;;32.10;13.27;;;;;;;;;;5040816;28;20675;-68
2021/12/22 13:20:55;;;;;;;27.10;12.53;;;;;;;;;;5031951;28;20213;-68
2021/12/22 13:23:23;;;;;;;23.67;12.33;;;;;;;;;;5038871;28;20184;-68
2021/12/22 13:25:50;;;;;;;30.83;13.50;;;;;;;;;;5028340;28;20186;-68
2021/12/22 13:28:18;;;;;;;22.03;12.23;;;;;;;;;;5038885;28;20200;-68
2021/12/22 13:31:10;;;;;;;28.07;12.90;;;;;;;;;;5031730;28;20182;-68
2021/12/22 13:33:38;;;;;;;22.67;11.77;;;;;;;;;;5033847;28;20197;-68
2021/12/22 13:36:15;;;;;;;27.13;13.33;;;;;;;;;;5028685;28;20190;-68
2021/12/22 13:38:54;;;;;;;27.67;13.20;;;;;;;;;;5040741;28;20189;-69
2021/12/22 13:41:22;;;;;;;25.10;12.60;;;;;;;;;;5031440;28;20235;-68
2021/12/22 13:43:57;;;;;;;22.60;12.17;;;;;;;;;;5040700;28;20200;-68
2021/12/22 13:46:25;;;;;;;26.33;12.33;;;;;;;;;;5035168;28;20697;-68
2021/12/22 13:49:03;;;;;;;26.27;12.90;;;;;;;;;;5041979;28;20479;-68
2021/12/22 13:51:35;;;;;;;26.80;13.10;;;;;;;;;;5031858;28;20187;-68
2021/12/22 13:54:06;;;;;;;25.70;13.07;;;;;;;;;;5041179;28;20209;-68
2021/12/22 13:56:33;;;;;;;24.80;12.70;;;;;;;;;;5035694;28;20188;-68
2021/12/22 13:59:02;;;;;;;27.70;12.67;;;;;;;;;;5035741;28;20172;-68
2021/12/22 14:01:37;;;;;;;28.47;13.10;;;;;;;;;;5029995;28;20316;-68
2021/12/22 14:04:05;;;;;;;24.00;12.77;;;;;;;;;;5038164;28;20187;-68
2021/12/22 14:06:33;;;;;;;27.33;12.83;;;;;;;;;;5038722;28;20181;-68
2021/12/22 14:09:31;;;;;;;25.97;13.20;;;;;;;;;;5042977;28;20230;-68
2021/12/22 14:12:08;;;;;;;25.67;13.37;;;;;;;;;;5033700;28;20178;-69
2021/12/22 14:14:40;;;;;;;26.03;13.07;;;;;;;;;;5042437;28;20627;-69
2021/12/22 14:17:07;;;;;;;24.20;13.20;;;;;;;;;;5034457;28;20177;-68
2021/12/22 14:19:39;;;;;;;27.07;13.00;;;;;;;;;;5039666;28;20213;-68
2021/12/22 14:22:12;;;;;;;29.10;13.80;;;;;;;;;;5036952;28;20180;-68
2021/12/22 14:24:40;;;;;;;27.63;14.17;;;;;;;;;;5033475;28;20564;-68
2021/12/22 14:27:09;;;;;;;30.37;14.63;;;;;;;;;;5041085;28;20557;-68
2021/12/22 14:29:49;;;;;;;28.17;13.63;;;;;;;;;;5036655;28;20548;-68
2021/12/22 14:32:30;;;;;;;27.03;13.77;;;;;;;;;;5041787;28;20181;-68
2021/12/22 14:35:08;;;;;;;26.60;13.70;;;;;;;;;;5036734;28;20277;-68
2021/12/22 14:37:34;;;;;;;28.37;14.00;;;;;;;;;;5046248;28;20211;-69
2021/12/22 14:40:00;;;;;;;22.10;12.83;;;;;;;;;;5039808;28;20292;-69
2021/12/22 14:42:29;;;;;;;25.07;13.83;;;;;;;;;;5048584;28;20642;-69
2021/12/22 14:45:18;;;;;;;24.67;13.23;;;;;;;;;;5036263;28;20650;-68
2021/12/22 14:47:45;;;;;;;25.80;12.97;;;;;;;;;;5044675;28;20277;-69
2021/12/22 14:50:13;;;;;;;28.03;13.37;;;;;;;;;;5035864;28;20197;-68
2021/12/22 14:52:57;;;;;;;25.63;13.33;;;;;;;;;;5043904;28;20208;-68
2021/12/22 14:55:42;;;;;;;25.80;13.43;;;;;;;;;;5035893;28;20219;-68
2021/12/22 14:58:09;;;;;;;24.40;12.27;;;;;;;;;;5040665;28;20602;-70
2021/12/22 15:00:35;;;;;;;25.83;12.97;;;;;;;;;;5033324;28;20256;-69
2021/12/22 15:03:01;;;;;;;25.93;13.33;;;;;;;;;;5039805;28;20239;-69
2021/12/22 15:05:26;;;;;;;25.17;13.80;;;;;;;;;;5031307;28;20182;-69